Time;durP1;ratioP1;P1;durP2;ratioP2;P2;SDS_P1;SDS_P2;PMS_P1;PMS_P2;Temp;Humidity;BMP_temperature;BMP_pressure;BME280_temperature;BME280_humidity;BME280_pressure;Samples;Min_cycle;Max_cycle;Signal;HPM_P1;HPM_P2
2022/08/23 00:01:07;;;;;;;;;;;16.20;99.90;;;;;;6165906;23;19947;-80
2022/08/23 00:03:33;;;;;;;;;;;16.10;99.90;;;;;;6165612;23;20227;-81
2022/08/23 00:06:01;;;;;;;;;;;16.10;99.90;;;;;;6190401;23;19922;-79
2022/08/23 00:08:28;;;;;;;;;;;16.20;99.90;;;;;;6165197;23;19924;-79
2022/08/23 00:10:57;;;;;;;;;;;16.20;99.90;;;;;;6164317;23;20239;-81
2022/08/23 00:13:23;;;;;;;;;;;16.20;99.90;;;;;;6165650;23;19920;-80
2022/08/23 00:15:49;;;;;;;;;;;16.10;99.90;;;;;;6165386;23;20232;-82
2022/08/23 00:18:19;;;;;;;;;;;16.00;99.90;;;;;;6165437;23;19924;-81
2022/08/23 00:20:45;;;;;;;;;;;16.00;99.90;;;;;;6190074;23;19920;-79
2022/08/23 00:23:13;;;;;;;;;;;16.00;99.90;;;;;;6165454;23;19923;-81
2022/08/23 00:25:39;;;;;;;;;;;15.90;99.90;;;;;;6164899;23;19920;-80
2022/08/23 00:28:08;;;;;;;;;;;16.00;99.90;;;;;;6165803;23;19916;-79
2022/08/23 00:30:34;;;;;;;;;;;16.00;99.90;;;;;;6165295;23;19915;-79
2022/08/23 00:32:59;;;;;;;;;;;16.00;99.90;;;;;;6165327;23;20377;-81
2022/08/23 00:35:25;;;;;;;;;;;16.00;99.90;;;;;;6163863;23;20322;-79
2022/08/23 00:37:53;;;;;;;;;;;16.00;99.90;;;;;;6164475;23;20246;-79
2022/08/23 00:40:19;;;;;;;;;;;16.00;99.90;;;;;;6163861;23;19924;-81
2022/08/23 00:48:29;;;;;;;;;;;16.10;99.90;;;;;;6189898;23;20317;-79
2022/08/23 00:51:00;;;;;;;;;;;16.10;99.90;;;;;;6165117;23;19962;-82
2022/08/23 00:53:35;;;;;;;;;;;16.10;99.90;;;;;;6190086;23;20366;-81
2022/08/23 00:56:02;;;;;;;;;;;16.10;99.90;;;;;;6165061;23;19916;-79
2022/08/23 00:58:29;;;;;;;;;;;16.20;99.90;;;;;;6165078;23;19916;-81
2022/08/23 01:00:56;;;;;;;;;;;16.20;99.90;;;;;;6165115;23;19947;-79
2022/08/23 01:03:23;;;;;;;;;;;16.20;99.90;;;;;;6164734;23;19916;-79
2022/08/23 01:06:03;;;;;;;;;;;16.20;99.90;;;;;;6189377;23;19926;-79
2022/08/23 01:08:30;;;;;;;;;;;16.20;99.90;;;;;;6159388;23;20358;-79
2022/08/23 01:10:59;;;;;;;;;;;16.10;99.90;;;;;;6158633;23;19916;-81
2022/08/23 01:13:28;;;;;;;;;;;16.10;99.90;;;;;;6160066;23;19924;-80
2022/08/23 01:16:06;;;;;;;;;;;16.10;99.90;;;;;;6159857;23;19939;-80
2022/08/23 01:18:32;;;;;;;;;;;16.10;99.90;;;;;;6162160;23;19991;-80
2022/08/23 01:21:04;;;;;;;;;;;16.00;99.90;;;;;;6162421;23;20319;-79
2022/08/23 01:23:36;;;;;;;;;;;16.00;99.90;;;;;;6160019;23;19924;-79
2022/08/23 01:26:03;;;;;;;;;;;16.00;99.90;;;;;;6160039;23;19921;-79
2022/08/23 01:28:28;;;;;;;;;;;16.00;99.90;;;;;;6159964;23;19916;-80
2022/08/23 01:30:54;;;;;;;;;;;16.00;99.90;;;;;;6159939;23;19966;-79
2022/08/23 01:33:20;;;;;;;;;;;16.00;99.90;;;;;;6160839;23;19967;-81
2022/08/23 01:35:50;;;;;;;;;;;16.10;99.90;;;;;;6161758;23;19916;-80
2022/08/23 01:38:16;;;;;;;;;;;16.00;99.90;;;;;;6186363;23;20291;-81
2022/08/23 01:40:42;;;;;;;;;;;16.00;99.90;;;;;;6161411;23;19920;-80
2022/08/23 01:43:07;;;;;;;;;;;16.00;99.90;;;;;;6161664;23;20363;-80
2022/08/23 01:45:34;;;;;;;;;;;16.00;99.90;;;;;;6161921;23;19916;-79
2022/08/23 01:48:02;;;;;;;;;;;16.00;99.90;;;;;;6161932;23;20047;-79
2022/08/23 01:50:28;;;;;;;;;;;16.00;99.90;;;;;;6161362;23;20395;-79
2022/08/23 01:52:54;;;;;;;;;;;16.00;99.90;;;;;;6161766;23;20354;-80
2022/08/23 01:55:23;;;;;;;;;;;16.00;99.90;;;;;;6161911;23;19916;-80
2022/08/23 01:57:50;;;;;;;;;;;16.00;99.90;;;;;;6161857;23;20274;-81
2022/08/23 02:00:16;;;;;;;;;;;16.00;99.90;;;;;;6161291;23;19928;-81
2022/08/23 02:02:42;;;;;;;;;;;16.00;99.90;;;;;;6187031;23;20242;-81
2022/08/23 02:05:08;;;;;;;;;;;16.00;99.90;;;;;;6186461;23;19939;-82
2022/08/23 02:07:34;;;;;;;;;;;16.00;99.90;;;;;;6161695;23;20243;-81
2022/08/23 02:10:02;;;;;;;;;;;16.00;99.90;;;;;;6161430;23;19928;-80
2022/08/23 02:12:28;;;;;;;;;;;16.00;99.90;;;;;;6161498;23;20010;-80
2022/08/23 02:14:55;;;;;;;;;;;15.90;99.90;;;;;;6161568;23;19916;-79
2022/08/23 02:17:23;;;;;;;;;;;15.90;99.90;;;;;;6161504;23;22084;-80
2022/08/23 02:19:49;;;;;;;;;;;15.90;99.90;;;;;;6160773;23;19928;-79
2022/08/23 02:22:15;;;;;;;;;;;15.90;99.90;;;;;;6161317;23;19916;-80
2022/08/23 02:24:43;;;;;;;;;;;15.90;99.90;;;;;;6161514;23;20004;-80
2022/08/23 02:27:09;;;;;;;;;;;15.90;99.90;;;;;;6161418;23;19923;-81
2022/08/23 02:29:34;;;;;;;;;;;15.90;99.90;;;;;;6161348;23;19917;-80
2022/08/23 02:32:00;;;;;;;;;;;15.90;99.90;;;;;;6161670;23;20235;-79
2022/08/23 02:34:29;;;;;;;;;;;15.90;99.90;;;;;;6161066;23;19952;-81
2022/08/23 02:36:55;;;;;;;;;;;15.90;99.90;;;;;;6159931;23;19948;-81
2022/08/23 02:39:20;;;;;;;;;;;16.00;99.90;;;;;;6160199;23;20347;-78
2022/08/23 02:41:46;;;;;;;;;;;16.00;99.90;;;;;;6160713;23;19923;-79
2022/08/23 02:44:12;;;;;;;;;;;16.00;99.90;;;;;;6160220;23;19966;-80
2022/08/23 02:46:39;;;;;;;;;;;16.00;99.90;;;;;;6161304;23;19916;-79
2022/08/23 02:49:05;;;;;;;;;;;16.00;99.90;;;;;;6163833;23;20354;-80
2022/08/23 02:51:30;;;;;;;;;;;16.00;99.90;;;;;;6163819;23;19917;-81
2022/08/23 02:53:56;;;;;;;;;;;16.00;99.90;;;;;;6162800;23;19916;-81
2022/08/23 02:56:22;;;;;;;;;;;16.00;99.90;;;;;;6164229;23;20374;-80
2022/08/23 02:58:48;;;;;;;;;;;16.00;99.90;;;;;;6160954;23;19951;-81
2022/08/23 03:01:19;;;;;;;;;;;16.00;99.90;;;;;;6161123;23;19969;-80
2022/08/23 03:03:44;;;;;;;;;;;16.00;99.90;;;;;;6160785;23;20393;-79
2022/08/23 03:06:11;;;;;;;;;;;15.90;99.90;;;;;;6160728;23;19948;-81
2022/08/23 03:08:37;;;;;;;;;;;15.90;99.90;;;;;;6160533;23;19991;-80
2022/08/23 03:11:09;;;;;;;;;;;15.90;99.90;;;;;;6161043;23;20386;-80
2022/08/23 03:13:35;;;;;;;;;;;16.00;99.90;;;;;;6160961;23;19923;-81
2022/08/23 03:16:03;;;;;;;;;;;15.90;99.90;;;;;;6161020;23;19916;-80
2022/08/23 03:18:28;;;;;;;;;;;16.00;99.90;;;;;;6160668;23;19917;-81
2022/08/23 03:20:54;;;;;;;;;;;16.10;99.90;;;;;;6161134;23;19943;-81
2022/08/23 03:23:22;;;;;;;;;;;16.10;99.90;;;;;;6160972;23;19983;-80
2022/08/23 03:25:48;;;;;;;;;;;16.20;99.90;;;;;;6160827;23;19916;-81
2022/08/23 03:28:14;;;;;;;;;;;16.20;99.90;;;;;;6160851;23;20399;-81
2022/08/23 03:30:39;;;;;;;;;;;16.20;99.90;;;;;;6160687;23;19926;-81
2022/08/23 03:33:05;;;;;;;;;;;16.20;99.90;;;;;;6161176;23;19959;-79
2022/08/23 03:35:31;;;;;;;;;;;16.20;99.90;;;;;;6160831;23;19966;-78
2022/08/23 03:37:57;;;;;;;;;;;16.20;99.90;;;;;;6160688;23;19955;-80
2022/08/23 03:40:22;;;;;;;;;;;16.20;99.90;;;;;;6159848;23;19974;-79
2022/08/23 03:42:49;;;;;;;;;;;16.30;99.90;;;;;;6159895;23;19947;-81
2022/08/23 03:45:15;;;;;;;;;;;16.30;99.90;;;;;;6160580;23;19917;-81
2022/08/23 03:47:44;;;;;;;;;;;16.30;99.90;;;;;;6160043;23;19916;-80
2022/08/23 03:50:11;;;;;;;;;;;16.20;99.90;;;;;;6160669;23;19923;-81
2022/08/23 03:52:39;;;;;;;;;;;16.20;99.90;;;;;;6161259;23;19974;-79
2022/08/23 03:55:05;;;;;;;;;;;16.10;99.90;;;;;;6159879;23;19917;-79
2022/08/23 03:57:31;;;;;;;;;;;16.00;99.90;;;;;;6160362;23;19916;-80
2022/08/23 03:59:59;;;;;;;;;;;16.00;99.90;;;;;;6160283;23;19920;-78
2022/08/23 04:02:26;;;;;;;;;;;15.90;99.90;;;;;;6160572;23;19920;-80
2022/08/23 04:04:52;;;;;;;;;;;15.80;99.90;;;;;;6160657;23;19947;-81
2022/08/23 04:07:21;;;;;;;;;;;15.80;99.90;;;;;;6160528;23;19916;-79
2022/08/23 04:09:46;;;;;;;;;;;15.80;99.90;;;;;;6160237;23;19921;-78
2022/08/23 04:12:12;;;;;;;;;;;15.70;99.90;;;;;;6160632;23;20327;-79
2022/08/23 04:14:38;;;;;;;;;;;15.70;99.90;;;;;;6161340;23;19924;-79
2022/08/23 04:17:04;;;;;;;;;;;15.60;99.90;;;;;;6160442;23;19923;-79
2022/08/23 04:19:30;;;;;;;;;;;15.50;99.90;;;;;;6164028;23;20247;-80
2022/08/23 04:21:56;;;;;;;;;;;15.50;99.90;;;;;;6165852;23;20319;-81
2022/08/23 04:24:24;;;;;;;;;;;15.50;99.90;;;;;;6160795;23;20291;-81
2022/08/23 04:26:50;;;;;;;;;;;15.40;99.90;;;;;;6160564;23;19917;-80
2022/08/23 04:29:16;;;;;;;;;;;15.40;99.90;;;;;;6160766;23;19951;-80
2022/08/23 04:31:42;;;;;;;;;;;15.40;99.90;;;;;;6159994;23;19923;-81
2022/08/23 04:34:08;;;;;;;;;;;15.40;99.90;;;;;;6160223;23;19991;-80
2022/08/23 04:36:36;;;;;;;;;;;15.50;99.90;;;;;;6160235;23;19994;-80
2022/08/23 04:39:03;;;;;;;;;;;15.50;99.90;;;;;;6159173;23;20007;-80
2022/08/23 04:44:14;;;;;;;;;;;15.70;99.90;;;;;;6184614;23;19916;-81
2022/08/23 04:46:40;;;;;;;;;;;15.80;99.90;;;;;;6185037;23;19958;-80
2022/08/23 04:49:05;;;;;;;;;;;15.80;99.90;;;;;;6160197;23;19917;-81
2022/08/23 04:51:31;;;;;;;;;;;15.90;99.90;;;;;;6160145;23;19923;-81
2022/08/23 04:53:57;;;;;;;;;;;15.90;99.90;;;;;;6160281;23;19923;-81
2022/08/23 04:56:22;;;;;;;;;;;15.90;99.90;;;;;;6185296;23;19916;-79
2022/08/23 04:58:48;;;;;;;;;;;16.00;99.90;;;;;;6161787;23;19916;-78
2022/08/23 05:01:17;;;;;;;;;;;16.00;99.90;;;;;;6161640;23;19954;-81
2022/08/23 05:03:45;;;;;;;;;;;16.00;99.90;;;;;;6160355;23;20243;-80
2022/08/23 05:06:11;;;;;;;;;;;15.90;99.90;;;;;;6165083;23;19916;-79
2022/08/23 05:08:39;;;;;;;;;;;16.20;99.90;;;;;;6214444;23;19904;-80
2022/08/23 05:11:06;;;;;;;;;;;16.00;99.90;;;;;;6190372;23;19909;-80
2022/08/23 05:13:33;;;;;;;;;;;16.00;99.90;;;;;;6190230;23;19904;-79
2022/08/23 05:15:58;;;;;;;;;;;16.10;99.90;;;;;;6189653;23;19904;-79
2022/08/23 05:18:25;;;;;;;;;;;16.10;99.90;;;;;;6162388;23;19923;-71
2022/08/23 05:20:53;;;;;;;;;;;16.30;99.90;;;;;;6187565;23;19991;-77
2022/08/23 05:23:18;;;;;;;;;;;16.30;99.90;;;;;;6161734;23;19920;-77
2022/08/23 05:25:51;;;;;;;;;;;16.50;99.90;;;;;;6161684;23;19923;-72
2022/08/23 05:28:39;;;;;;;;;;;16.60;99.90;;;;;;6186325;23;19920;-73
2022/08/23 05:31:10;;;;;;;;;;;16.80;99.90;;;;;;6177545;23;20220;-72
2022/08/23 05:33:36;;;;;;;;;;;16.90;99.90;;;;;;6186440;23;19932;-73
2022/08/23 05:36:02;;;;;;;;;;;17.10;99.90;;;;;;6186724;23;19924;-71
2022/08/23 05:38:28;;;;;;;;;;;17.20;99.90;;;;;;6186781;23;19962;-72
2022/08/23 05:40:56;;;;;;;;;;;17.20;99.90;;;;;;6161680;23;19974;-71
2022/08/23 05:43:22;;;;;;;;;;;17.30;99.90;;;;;;6161766;23;19927;-73
2022/08/23 05:45:57;;;;;;;;;;;17.50;99.90;;;;;;6185599;23;19928;-72
2022/08/23 05:48:23;;;;;;;;;;;17.50;99.90;;;;;;6161456;23;20021;-71
2022/08/23 05:50:48;;;;;;;;;;;17.70;99.90;;;;;;6185811;23;20640;-73
2022/08/23 05:53:14;;;;;;;;;;;17.70;99.90;;;;;;6161110;23;19921;-72
2022/08/23 05:55:40;;;;;;;;;;;17.80;99.90;;;;;;6160770;23;20247;-72
2022/08/23 05:58:05;;;;;;;;;;;17.80;99.90;;;;;;6186208;23;19928;-71
2022/08/23 06:00:31;;;;;;;;;;;17.90;99.90;;;;;;6161472;23;19943;-73
2022/08/23 06:02:57;;;;;;;;;;;18.00;99.90;;;;;;6186486;23;20228;-72
2022/08/23 06:05:22;;;;;;;;;;;18.20;99.90;;;;;;6161982;23;19924;-71
2022/08/23 06:07:48;;;;;;;;;;;18.30;99.90;;;;;;6186514;23;19920;-72
2022/08/23 06:10:14;;;;;;;;;;;18.40;99.90;;;;;;6160961;23;19928;-72
2022/08/23 06:12:39;;;;;;;;;;;18.40;99.90;;;;;;6161604;23;19924;-74
2022/08/23 06:15:05;;;;;;;;;;;18.30;99.90;;;;;;6186394;23;19920;-75
2022/08/23 06:17:31;;;;;;;;;;;18.50;99.90;;;;;;6186441;23;19991;-74
2022/08/23 06:19:56;;;;;;;;;;;18.50;99.90;;;;;;6160970;23;19927;-73
2022/08/23 06:22:22;;;;;;;;;;;18.60;99.90;;;;;;6186761;23;20359;-72
2022/08/23 06:24:48;;;;;;;;;;;18.80;99.90;;;;;;6161482;23;19928;-73
2022/08/23 06:27:13;;;;;;;;;;;18.90;99.90;;;;;;6161494;23;20331;-72
2022/08/23 06:29:39;;;;;;;;;;;18.80;99.90;;;;;;6161304;23;19956;-72
2022/08/23 06:32:06;;;;;;;;;;;19.00;99.90;;;;;;6161425;23;19935;-71
2022/08/23 06:34:34;;;;;;;;;;;18.90;99.90;;;;;;6186866;23;19927;-72
2022/08/23 06:37:01;;;;;;;;;;;18.90;99.90;;;;;;6186073;23;19924;-73
2022/08/23 06:39:28;;;;;;;;;;;19.00;99.90;;;;;;6186042;23;19927;-72
2022/08/23 06:42:23;;;;;;;;;;;19.20;99.90;;;;;;6161351;23;20299;-75
2022/08/23 07:18:12;;;;;;;;;;;21.40;99.90;;;;;;6198610;22;20013;31
2022/08/23 07:21:02;;;;;;;;;;;21.10;99.90;;;;;;6179222;23;19926;-78
2022/08/23 07:23:34;;;;;;;;;;;21.20;99.90;;;;;;6166099;23;19916;-76
2022/08/23 07:46:16;;;;;;;;;;;22.20;99.90;;;;;;6053915;23;19947;-75
2022/08/23 07:48:47;;;;;;;;;;;22.40;99.90;;;;;;6017151;23;19918;-81
2022/08/23 07:51:13;;;;;;;;;;;22.60;99.90;;;;;;6044689;23;19968;-78
2022/08/23 07:57:34;;;;;;;;;;;22.90;99.90;;;;;;6123291;23;19956;-82
2022/08/23 08:08:01;;;;;;;;;;;;;;;;;;;;;
2022/08/23 08:10:26;;;;;;;;;;;23.40;99.90;;;;;;6087068;23;19916;-76
2022/08/23 08:13:30;;;;;;;;;;;;;;;;;;;;;
2022/08/23 08:26:50;;;;;;;;;;;24.10;99.90;;;;;;6124480;23;19916;-81
2022/08/23 08:32:10;;;;;;;;;;;24.50;99.90;;;;;;6082580;23;19933;-76
2022/08/23 09:02:36;;;;;;;;;;;24.60;99.90;;;;;;6064827;23;19953;-76
2022/08/23 09:05:40;;;;;;;;;;;24.50;99.90;;;;;;6067062;23;19926;-77
2022/08/23 11:44:05;;;;;;;;;;;29.40;95.30;;;;;;6215306;23;19975;-78
2022/08/23 11:46:33;;;;;;;;;;;29.00;94.60;;;;;;6164014;23;19991;-79
2022/08/23 11:49:14;;;;;;;;;;;29.10;94.20;;;;;;6188888;23;19923;-79
2022/08/23 11:58:15;;;;;;;;;;;28.90;95.50;;;;;;6128348;23;20354;-79
2022/08/23 12:01:05;;;;;;;;;;;29.30;95.00;;;;;;6153996;23;19916;-78
2022/08/23 12:04:35;;;;;;;;;;;;;;;;;;;;;
2022/08/23 12:07:42;;;;;;;;;;;29.30;93.20;;;;;;6141906;23;20285;-77
2022/08/23 12:10:08;;;;;;;;;;;29.00;93.30;;;;;;6148518;23;19916;-76
2022/08/23 12:12:34;;;;;;;;;;;29.10;93.60;;;;;;6163526;23;19938;-77
2022/08/23 12:15:01;;;;;;;;;;;29.20;93.60;;;;;;6163704;23;19916;-75
2022/08/23 12:17:30;;;;;;;;;;;29.30;93.20;;;;;;6163362;23;19923;-76
2022/08/23 12:20:10;;;;;;;;;;;29.30;92.30;;;;;;6187886;23;20239;-75
2022/08/23 12:22:57;;;;;;;;;;;29.30;93.70;;;;;;6163469;23;20318;-77
2022/08/23 12:25:29;;;;;;;;;;;29.10;92.00;;;;;;6163764;23;19916;-77
2022/08/23 12:28:00;;;;;;;;;;;29.00;91.50;;;;;;6162457;23;19915;-79
2022/08/23 12:30:32;;;;;;;;;;;29.00;92.40;;;;;;6163254;23;20327;-80
2022/08/23 12:33:11;;;;;;;;;;;29.20;93.30;;;;;;6163620;23;19954;-82
2022/08/23 12:35:52;;;;;;;;;;;29.40;93.90;;;;;;6163928;23;19916;-79
2022/08/23 12:45:30;;;;;;;;;;;29.30;92.70;;;;;;6125162;23;19968;-79
2022/08/23 13:20:48;;;;;;;;;;;29.80;91.30;;;;;;6149286;23;20013;-78
2022/08/23 13:30:26;;;;;;;;;;;29.70;91.10;;;;;;6182369;23;20246;-76
2022/08/23 13:40:42;;;;;;;;;;;;;;;;;;;;;
2022/08/23 13:46:51;;;;;;;;;;;29.70;91.10;;;;;;6038932;23;19978;-77
2022/08/23 14:03:10;;;;;;;;;;;30.20;87.50;;;;;;6043834;23;19937;-78
2022/08/23 14:38:42;;;;;;;;;;;29.80;83.40;;;;;;6187614;23;19915;-75
2022/08/23 14:41:09;;;;;;;;;;;30.20;83.60;;;;;;6186833;23;20002;-75
2022/08/23 14:43:35;;;;;;;;;;;30.40;84.80;;;;;;6161400;23;19931;-75
2022/08/23 14:46:01;;;;;;;;;;;30.50;83.50;;;;;;6136636;23;19916;-76
2022/08/23 14:48:27;;;;;;;;;;;30.60;83.30;;;;;;6136635;23;19963;-76
2022/08/23 14:50:53;;;;;;;;;;;30.60;89.50;;;;;;6161117;23;20247;-76
2022/08/23 14:53:26;;;;;;;;;;;30.30;91.60;;;;;;6136659;23;20050;-78
2022/08/23 14:55:54;;;;;;;;;;;29.90;92.20;;;;;;6160749;23;19920;-77
2022/08/23 14:58:20;;;;;;;;;;;30.00;93.10;;;;;;6160839;23;19924;-78
2022/08/23 15:00:46;;;;;;;;;;;30.00;93.20;;;;;;6160900;23;20320;-75
2022/08/23 15:03:16;;;;;;;;;;;29.80;93.40;;;;;;6136591;23;19948;-76
2022/08/23 15:05:41;;;;;;;;;;;30.00;93.60;;;;;;6111961;23;19916;-76
2022/08/23 15:08:07;;;;;;;;;;;30.20;93.70;;;;;;6136283;23;19923;-75
2022/08/23 15:10:33;;;;;;;;;;;30.00;93.80;;;;;;6136122;23;19923;-76
2022/08/23 15:12:58;;;;;;;;;;;29.80;94.30;;;;;;6160588;23;19924;-77
2022/08/23 15:15:27;;;;;;;;;;;29.60;94.00;;;;;;6136095;23;19917;-79
2022/08/23 15:17:54;;;;;;;;;;;29.50;94.00;;;;;;6134612;23;20323;-78
2022/08/23 15:20:21;;;;;;;;;;;29.50;94.20;;;;;;6160749;23;19968;-75
2022/08/23 15:22:47;;;;;;;;;;;29.50;94.50;;;;;;6186657;23;19943;-76
2022/08/23 15:25:13;;;;;;;;;;;29.40;94.80;;;;;;6160665;23;20332;-74
2022/08/23 15:27:39;;;;;;;;;;;29.90;94.00;;;;;;6160838;23;20070;-76
2022/08/23 15:30:06;;;;;;;;;;;29.90;93.60;;;;;;6135565;23;20331;-75
2022/08/23 15:32:37;;;;;;;;;;;29.90;93.50;;;;;;6160634;23;20366;-79
2022/08/23 15:35:03;;;;;;;;;;;29.90;93.50;;;;;;6160931;23;19995;-75
2022/08/23 15:37:29;;;;;;;;;;;29.80;93.60;;;;;;6135794;23;20295;-77
2022/08/23 15:40:14;;;;;;;;;;;;;;;;;;;;;
2022/08/23 15:42:49;;;;;;;;;;;30.00;93.10;;;;;;6159699;23;19920;-77
2022/08/23 15:45:15;;;;;;;;;;;30.10;93.20;;;;;;6134968;23;20216;-76
2022/08/23 15:47:52;;;;;;;;;;;30.10;92.90;;;;;;6133135;23;20331;-75
2022/08/23 15:50:19;;;;;;;;;;;30.00;92.90;;;;;;6158094;23;19952;-71
2022/08/23 15:52:44;;;;;;;;;;;30.10;93.10;;;;;;6158905;23;19917;-74
2022/08/23 15:55:55;;;;;;;;;;;;;;;;;;;;;
2022/08/23 16:01:48;;;;;;;;;;;29.80;92.80;;;;;;6148309;23;19991;-78
2022/08/23 16:04:39;;;;;;;;;;;29.40;93.60;;;;;;6181780;23;19916;-76
2022/08/23 16:07:08;;;;;;;;;;;28.90;94.30;;;;;;6134572;23;19916;-79
2022/08/23 16:10:17;;;;;;;;;;;28.60;94.70;;;;;;6135316;23;19916;-82
2022/08/23 16:13:41;;;;;;;;;;;28.40;94.90;;;;;;6065264;23;19972;-77
2022/08/23 16:16:10;;;;;;;;;;;27.70;96.30;;;;;;6017504;23;20000;-76
2022/08/23 16:18:38;;;;;;;;;;;27.30;96.40;;;;;;6139879;23;19916;-78
2022/08/23 16:21:03;;;;;;;;;;;26.90;98.00;;;;;;6158146;23;19920;-82
2022/08/23 16:34:05;;;;;;;;;;;;;;;;;;;;;
2022/08/23 16:41:05;;;;;;;;;;;25.30;99.90;;;;;;6245286;23;19944;-73
2022/08/23 16:43:52;;;;;;;;;;;25.40;99.90;;;;;;6215044;23;19920;-71
2022/08/23 16:46:18;;;;;;;;;;;25.20;99.90;;;;;;6189145;23;19995;-71
2022/08/23 16:48:44;;;;;;;;;;;25.00;99.90;;;;;;6189748;23;19943;-70
2022/08/23 16:51:10;;;;;;;;;;;25.00;99.90;;;;;;6164712;23;19919;-73
2022/08/23 16:53:36;;;;;;;;;;;24.80;99.90;;;;;;6189691;23;20013;-72
2022/08/23 16:56:02;;;;;;;;;;;24.70;99.90;;;;;;6188333;23;19986;-75
2022/08/23 16:58:28;;;;;;;;;;;24.60;99.90;;;;;;6189999;23;19920;-73
2022/08/23 17:00:53;;;;;;;;;;;24.60;99.90;;;;;;6216539;23;20234;-74
2022/08/23 17:03:19;;;;;;;;;;;24.60;99.90;;;;;;6189309;23;19920;-74
2022/08/23 17:05:45;;;;;;;;;;;24.60;99.90;;;;;;6189982;23;19919;-71
2022/08/23 17:08:10;;;;;;;;;;;24.50;99.90;;;;;;6189591;23;20043;-75
2022/08/23 17:10:36;;;;;;;;;;;24.50;99.90;;;;;;6189470;23;19923;-74
2022/08/23 17:13:02;;;;;;;;;;;24.50;99.90;;;;;;6185897;23;19978;-73
2022/08/23 17:15:29;;;;;;;;;;;24.50;99.90;;;;;;6188165;23;20283;-73
2022/08/23 17:17:55;;;;;;;;;;;24.50;99.90;;;;;;6163707;23;19974;-70
2022/08/23 17:20:22;;;;;;;;;;;24.50;99.90;;;;;;6187931;23;19916;-71
2022/08/23 17:26:41;;;;;;;;;;;24.40;99.90;;;;;;6093816;23;19953;-76
2022/08/23 17:29:11;;;;;;;;;;;24.30;99.90;;;;;;6037512;23;19952;-73
2022/08/23 17:31:45;;;;;;;;;;;24.10;99.90;;;;;;6213520;23;19962;-69
2022/08/23 17:37:45;;;;;;;;;;;24.00;99.90;;;;;;6214973;23;20042;-72
2022/08/23 17:40:14;;;;;;;;;;;23.90;99.90;;;;;;6188098;23;19952;-72
2022/08/23 17:42:41;;;;;;;;;;;23.80;99.90;;;;;;6188215;23;19924;-72
2022/08/23 17:45:07;;;;;;;;;;;23.70;99.90;;;;;;6163706;23;19920;-72
2022/08/23 17:47:33;;;;;;;;;;;23.60;99.90;;;;;;6163621;23;20372;-72
2022/08/23 17:49:59;;;;;;;;;;;23.60;99.90;;;;;;6188070;23;19959;-71
2022/08/23 17:52:26;;;;;;;;;;;23.50;99.90;;;;;;6214895;23;19920;-72
2022/08/23 17:55:01;;;;;;;;;;;23.40;99.90;;;;;;6188405;23;20335;-74
2022/08/23 17:57:27;;;;;;;;;;;23.30;99.90;;;;;;6189165;23;19920;-71
2022/08/23 17:59:52;;;;;;;;;;;23.20;99.90;;;;;;6163062;23;20382;-72
2022/08/23 18:02:19;;;;;;;;;;;23.20;99.90;;;;;;6188417;23;20343;-72
2022/08/23 18:04:45;;;;;;;;;;;23.10;99.90;;;;;;6163975;23;19919;-71
2022/08/23 18:07:10;;;;;;;;;;;23.00;99.90;;;;;;6138374;23;19922;-72
2022/08/23 18:09:36;;;;;;;;;;;23.10;99.90;;;;;;6187620;23;19920;-71
2022/08/23 18:12:02;;;;;;;;;;;22.90;99.90;;;;;;6188659;23;20334;-72
2022/08/23 18:14:27;;;;;;;;;;;22.90;99.90;;;;;;6166035;23;19951;-72
2022/08/23 18:16:54;;;;;;;;;;;22.80;99.90;;;;;;6194441;23;20232;-71
2022/08/23 18:19:19;;;;;;;;;;;22.80;99.90;;;;;;6221186;23;19919;-71
2022/08/23 18:21:45;;;;;;;;;;;22.70;99.90;;;;;;6203309;23;19991;-70
2022/08/23 18:24:11;;;;;;;;;;;22.60;99.90;;;;;;6211050;23;20293;-70
2022/08/23 18:29:22;;;;;;;;;;;22.50;99.90;;;;;;6235047;23;19920;-71
2022/08/23 18:31:47;;;;;;;;;;;22.40;99.90;;;;;;6209674;23;19959;-71
2022/08/23 18:34:13;;;;;;;;;;;22.30;99.90;;;;;;6191825;23;19919;-70
2022/08/23 18:36:39;;;;;;;;;;;22.20;99.90;;;;;;6166380;23;19920;-70
2022/08/23 18:39:06;;;;;;;;;;;22.20;99.90;;;;;;6191171;23;19966;-71
2022/08/23 18:41:32;;;;;;;;;;;22.10;99.90;;;;;;6190847;23;19919;-71
2022/08/23 18:43:58;;;;;;;;;;;22.00;99.90;;;;;;6191478;23;19915;-70
2022/08/23 18:46:26;;;;;;;;;;;22.00;99.90;;;;;;6166426;23;20034;-70
2022/08/23 18:48:52;;;;;;;;;;;21.90;99.90;;;;;;6191142;23;19924;-71
2022/08/23 18:51:18;;;;;;;;;;;21.90;99.90;;;;;;6191430;23;19920;-70
2022/08/23 18:53:44;;;;;;;;;;;21.80;99.90;;;;;;6191154;23;19974;-71
2022/08/23 18:56:09;;;;;;;;;;;21.80;99.90;;;;;;6191404;23;19924;-72
2022/08/23 18:58:35;;;;;;;;;;;21.80;99.90;;;;;;6166162;23;19920;-72
2022/08/23 19:01:00;;;;;;;;;;;21.70;99.90;;;;;;6165805;23;20330;-71
2022/08/23 19:03:27;;;;;;;;;;;21.70;99.90;;;;;;6165815;23;19955;-71
2022/08/23 19:05:52;;;;;;;;;;;21.60;99.90;;;;;;6190722;23;19916;-71
2022/08/23 19:08:18;;;;;;;;;;;21.60;99.90;;;;;;6165841;23;19991;-71
2022/08/23 19:10:44;;;;;;;;;;;21.50;99.90;;;;;;6215643;23;19960;-72
2022/08/23 19:13:09;;;;;;;;;;;21.40;99.90;;;;;;6190809;23;19955;-71
2022/08/23 19:15:36;;;;;;;;;;;21.40;99.90;;;;;;6190652;23;19927;-71
2022/08/23 19:18:02;;;;;;;;;;;21.40;99.90;;;;;;6190611;23;19920;-72
2022/08/23 19:20:27;;;;;;;;;;;21.30;99.90;;;;;;6165551;23;19923;-72
2022/08/23 19:22:54;;;;;;;;;;;21.30;99.90;;;;;;6217471;23;19924;-73
2022/08/23 19:25:20;;;;;;;;;;;21.30;99.90;;;;;;6165526;23;19920;-71
2022/08/23 19:27:45;;;;;;;;;;;21.30;99.90;;;;;;6216278;23;19916;-71
2022/08/23 19:30:12;;;;;;;;;;;21.30;99.90;;;;;;6190665;23;20247;-71
2022/08/23 19:32:38;;;;;;;;;;;21.30;99.90;;;;;;6216839;23;20323;-70
2022/08/23 19:35:04;;;;;;;;;;;21.30;99.90;;;;;;6215093;23;19920;-70
2022/08/23 19:37:30;;;;;;;;;;;21.30;99.90;;;;;;6191002;23;20335;-70
2022/08/23 19:39:56;;;;;;;;;;;21.30;99.90;;;;;;6165533;23;19999;-70
2022/08/23 19:42:22;;;;;;;;;;;21.20;99.90;;;;;;6189949;23;19916;-69
2022/08/23 19:44:48;;;;;;;;;;;21.20;99.90;;;;;;6190203;23;19916;-70
2022/08/23 19:47:13;;;;;;;;;;;21.20;99.90;;;;;;6217004;23;19962;-69
2022/08/23 19:49:39;;;;;;;;;;;21.20;99.90;;;;;;6190682;23;20302;-69
2022/08/23 19:52:06;;;;;;;;;;;21.20;99.90;;;;;;6165679;23;19920;-69
2022/08/23 19:54:32;;;;;;;;;;;21.20;99.90;;;;;;6217007;23;19920;-69
2022/08/23 19:56:58;;;;;;;;;;;21.20;99.90;;;;;;6190112;23;19920;-71
2022/08/23 19:59:25;;;;;;;;;;;21.20;99.90;;;;;;6164643;23;19998;-70
2022/08/23 20:01:52;;;;;;;;;;;21.10;99.90;;;;;;6190266;23;19919;-70
2022/08/23 20:04:18;;;;;;;;;;;21.10;99.90;;;;;;6165502;23;20361;-70
2022/08/23 20:06:44;;;;;;;;;;;21.10;99.90;;;;;;6165701;23;19920;-68
2022/08/23 20:09:10;;;;;;;;;;;21.10;99.90;;;;;;6190260;23;19930;-71
2022/08/23 20:11:36;;;;;;;;;;;21.10;99.90;;;;;;6165357;23;19920;-70
2022/08/23 20:14:02;;;;;;;;;;;21.00;99.90;;;;;;6190192;23;20384;-70
2022/08/23 20:16:28;;;;;;;;;;;21.00;99.90;;;;;;6165631;23;19927;-71
2022/08/23 20:18:54;;;;;;;;;;;21.00;99.90;;;;;;6216789;23;19998;-69
2022/08/23 20:21:20;;;;;;;;;;;20.90;99.90;;;;;;6189888;23;19959;-70
2022/08/23 20:24:00;;;;;;;;;;;20.90;99.90;;;;;;6190206;23;19968;-72
2022/08/23 20:26:27;;;;;;;;;;;20.90;99.90;;;;;;6190394;23;19955;-69
2022/08/23 20:28:53;;;;;;;;;;;20.90;99.90;;;;;;6189846;23;19956;-69
2022/08/23 20:31:23;;;;;;;;;;;20.80;99.90;;;;;;6165702;23;19927;-69
2022/08/23 20:33:50;;;;;;;;;;;20.70;99.90;;;;;;6189690;23;19927;-69
2022/08/23 20:36:16;;;;;;;;;;;20.70;99.90;;;;;;6190366;23;19919;-70
2022/08/23 20:38:42;;;;;;;;;;;20.60;99.90;;;;;;6164633;23;19927;-70
2022/08/23 20:41:08;;;;;;;;;;;20.60;99.90;;;;;;6216154;23;19920;-70
2022/08/23 20:43:35;;;;;;;;;;;20.60;99.90;;;;;;6189502;23;19920;-70
2022/08/23 20:46:02;;;;;;;;;;;20.60;99.90;;;;;;6215962;23;19924;-70
2022/08/23 20:48:29;;;;;;;;;;;20.60;99.90;;;;;;6189981;23;19920;-70
2022/08/23 20:50:57;;;;;;;;;;;20.60;99.90;;;;;;6189395;23;19920;-70
2022/08/23 20:53:23;;;;;;;;;;;20.60;99.90;;;;;;6164332;23;19920;-69
2022/08/23 20:55:48;;;;;;;;;;;20.60;99.90;;;;;;6189988;23;19920;-71
2022/08/23 20:58:14;;;;;;;;;;;20.50;99.90;;;;;;6189892;23;19990;-69
2022/08/23 21:00:39;;;;;;;;;;;20.50;99.90;;;;;;6216283;23;20274;-70
2022/08/23 21:03:05;;;;;;;;;;;20.50;99.90;;;;;;6164783;23;19926;-68
2022/08/23 21:05:30;;;;;;;;;;;20.50;99.90;;;;;;6190049;23;19920;-69
2022/08/23 21:07:56;;;;;;;;;;;20.50;99.90;;;;;;6165065;23;20354;-69
2022/08/23 21:10:21;;;;;;;;;;;20.40;99.90;;;;;;6190049;23;19965;-69
2022/08/23 21:12:50;;;;;;;;;;;20.40;99.90;;;;;;6165129;23;19920;-69
2022/08/23 21:15:16;;;;;;;;;;;20.40;99.90;;;;;;6190291;23;19970;-69
2022/08/23 21:17:41;;;;;;;;;;;20.40;99.90;;;;;;6165245;23;19919;-69
2022/08/23 21:20:07;;;;;;;;;;;20.30;99.90;;;;;;6189880;23;19959;-66
2022/08/23 21:22:33;;;;;;;;;;;20.30;99.90;;;;;;6165125;23;19951;-66